Time;durP1;ratioP1;P1;durP2;ratioP2;P2;SDS_P1;SDS_P2;PMS_P1;PMS_P2;Temp;Humidity;BMP_temperature;BMP_pressure;BME280_temperature;BME280_humidity;BME280_pressure;Samples;Min_cycle;Max_cycle;Signal;HPM_P1;HPM_P2
2022/11/24 00:01:30;;;;;;;15.50;3.53;;;;;;;;;;5027893;28;20131;-81
2022/11/24 00:04:01;;;;;;;16.25;3.50;;;;;;;;;;5029320;28;20038;-81
2022/11/24 00:06:28;;;;;;;13.43;2.28;;;;;;;;;;5009963;28;20034;-81
2022/11/24 00:08:54;;;;;;;15.85;4.07;;;;;;;;;;5027546;28;20021;-82
2022/11/24 00:11:28;;;;;;;11.05;2.75;;;;;;;;;;5026579;28;20039;-81
2022/11/24 00:13:54;;;;;;;9.57;2.72;;;;;;;;;;5024880;28;20398;-81
2022/11/24 00:16:21;;;;;;;15.68;3.20;;;;;;;;;;5028145;28;20037;-81
2022/11/24 00:18:48;;;;;;;16.65;2.78;;;;;;;;;;5026458;28;20475;-80
2022/11/24 00:21:15;;;;;;;13.90;2.60;;;;;;;;;;5021142;28;20033;-81
2022/11/24 00:23:40;;;;;;;16.10;2.97;;;;;;;;;;5028636;28;20091;-81
2022/11/24 00:26:08;;;;;;;15.57;3.03;;;;;;;;;;5026898;28;20053;-81
2022/11/24 00:28:34;;;;;;;8.07;1.90;;;;;;;;;;5023205;28;20935;-81
2022/11/24 00:31:00;;;;;;;13.40;2.95;;;;;;;;;;5023108;28;20038;-80
2022/11/24 00:33:25;;;;;;;13.10;2.72;;;;;;;;;;5042731;28;20039;-81
2022/11/24 00:35:55;;;;;;;16.35;2.75;;;;;;;;;;5026862;28;20048;-81
2022/11/24 00:38:20;;;;;;;10.73;2.13;;;;;;;;;;5023679;28;20068;-81
2022/11/24 00:40:45;;;;;;;10.45;2.08;;;;;;;;;;5027635;28;20053;-81
2022/11/24 00:43:11;;;;;;;12.00;2.80;;;;;;;;;;5027576;28;20123;-81
2022/11/24 00:45:36;;;;;;;8.73;2.33;;;;;;;;;;5021575;28;20860;-81
2022/11/24 00:48:02;;;;;;;7.53;2.08;;;;;;;;;;5028007;28;20029;-81
2022/11/24 00:50:27;;;;;;;9.32;1.65;;;;;;;;;;5025847;28;20048;-81
2022/11/24 00:52:52;;;;;;;12.70;2.60;;;;;;;;;;5027157;28;20034;-81
2022/11/24 00:55:17;;;;;;;12.02;2.22;;;;;;;;;;5027221;28;20037;-81
2022/11/24 00:57:43;;;;;;;10.30;1.85;;;;;;;;;;5025913;28;20116;-82
2022/11/24 01:00:08;;;;;;;7.45;1.92;;;;;;;;;;5027740;28;20029;-81
2022/11/24 01:02:34;;;;;;;10.13;1.77;;;;;;;;;;5022829;28;20477;-81
2022/11/24 01:04:59;;;;;;;12.25;2.42;;;;;;;;;;5025175;28;20518;-81
2022/11/24 01:07:24;;;;;;;12.75;2.30;;;;;;;;;;5022562;28;20087;-81
2022/11/24 01:09:49;;;;;;;13.43;2.00;;;;;;;;;;5025246;28;20075;-81
2022/11/24 01:12:15;;;;;;;7.47;1.67;;;;;;;;;;5025829;28;20077;-81
2022/11/24 01:14:40;;;;;;;8.82;2.28;;;;;;;;;;5027320;28;20057;-81
2022/11/24 01:17:05;;;;;;;16.08;2.28;;;;;;;;;;5021030;28;20079;-80
2022/11/24 01:19:31;;;;;;;12.95;2.20;;;;;;;;;;5025976;28;20132;-81
2022/11/24 01:21:56;;;;;;;10.23;1.88;;;;;;;;;;5025417;28;20032;-81
2022/11/24 01:24:21;;;;;;;14.07;2.30;;;;;;;;;;5025152;28;20025;-81
2022/11/24 01:26:47;;;;;;;6.05;1.85;;;;;;;;;;5021432;28;20021;-81
2022/11/24 01:29:12;;;;;;;10.85;1.88;;;;;;;;;;5025323;28;20048;-82
2022/11/24 01:31:38;;;;;;;12.07;1.48;;;;;;;;;;5026904;28;20041;-81
2022/11/24 01:34:03;;;;;;;11.23;1.85;;;;;;;;;;5026539;28;20079;-82
2022/11/24 01:36:28;;;;;;;13.60;2.10;;;;;;;;;;5026566;28;20053;-81
2022/11/24 01:38:54;;;;;;;13.82;2.20;;;;;;;;;;5027603;28;21244;-81
2022/11/24 01:41:22;;;;;;;12.45;2.67;;;;;;;;;;5026190;28;20049;-81
2022/11/24 01:43:49;;;;;;;16.70;2.58;;;;;;;;;;5026529;28;20040;-81
2022/11/24 01:46:20;;;;;;;11.05;2.60;;;;;;;;;;5023016;28;20414;-81
2022/11/24 01:49:11;;;;;;;13.35;2.20;;;;;;;;;;5025163;28;20117;-81
2022/11/24 01:51:59;;;;;;;10.68;1.60;;;;;;;;;;4993459;28;20094;-82
2022/11/24 01:54:31;;;;;;;7.55;2.17;;;;;;;;;;5023978;28;20057;-81
2022/11/24 01:57:04;;;;;;;28.08;2.85;;;;;;;;;;5022320;28;20029;-81
2022/11/24 01:59:29;;;;;;;17.38;2.40;;;;;;;;;;5012044;28;20087;-80
2022/11/24 02:01:55;;;;;;;14.68;2.17;;;;;;;;;;5026455;28;20045;-82
2022/11/24 02:04:25;;;;;;;12.15;1.77;;;;;;;;;;5026475;28;20034;-82
2022/11/24 02:06:52;;;;;;;9.57;2.45;;;;;;;;;;5025333;28;20402;-81
2022/11/24 02:09:25;;;;;;;15.60;2.72;;;;;;;;;;5030313;28;20116;-81
2022/11/24 02:11:52;;;;;;;16.27;2.47;;;;;;;;;;5028513;28;20398;-81
2022/11/24 02:14:19;;;;;;;12.07;1.55;;;;;;;;;;5023401;28;20064;-82
2022/11/24 02:16:49;;;;;;;10.50;1.90;;;;;;;;;;5029503;28;20526;-81
2022/11/24 02:19:40;;;;;;;18.42;2.65;;;;;;;;;;5028984;28;20082;-81
2022/11/24 02:22:43;;;;;;;13.00;1.92;;;;;;;;;;5027622;28;20514;-81
2022/11/24 02:25:32;;;;;;;9.38;1.80;;;;;;;;;;5023142;28;20038;-81
2022/11/24 02:28:00;;;;;;;10.52;1.88;;;;;;;;;;5039769;28;20057;-81
2022/11/24 02:30:26;;;;;;;8.35;2.00;;;;;;;;;;5028704;28;20026;-81
2022/11/24 02:32:51;;;;;;;10.85;1.83;;;;;;;;;;5028929;28;20021;-80
2022/11/24 02:35:17;;;;;;;6.80;2.45;;;;;;;;;;5029789;28;20040;-81
2022/11/24 02:37:42;;;;;;;8.75;1.65;;;;;;;;;;5029615;28;20120;-81
2022/11/24 02:40:08;;;;;;;9.32;2.08;;;;;;;;;;5027436;28;20044;-81
2022/11/24 02:42:39;;;;;;;8.40;1.27;;;;;;;;;;5024883;28;20060;-81
2022/11/24 02:45:07;;;;;;;9.07;1.50;;;;;;;;;;5008331;28;20067;-81
2022/11/24 02:47:32;;;;;;;9.93;2.35;;;;;;;;;;5023036;28;20036;-82
2022/11/24 02:49:57;;;;;;;8.93;1.80;;;;;;;;;;5028470;28;20029;-81
2022/11/24 02:52:23;;;;;;;10.23;1.60;;;;;;;;;;5028641;28;20345;-81
2022/11/24 02:54:48;;;;;;;8.18;0.90;;;;;;;;;;5029252;28;20026;-81
2022/11/24 02:57:14;;;;;;;6.55;2.00;;;;;;;;;;5026642;28;20100;-81
2022/11/24 02:59:39;;;;;;;7.28;1.10;;;;;;;;;;5045041;28;20029;-81
2022/11/24 03:02:04;;;;;;;4.40;0.93;;;;;;;;;;5029715;28;20030;-81
2022/11/24 03:04:30;;;;;;;2.47;1.08;;;;;;;;;;5027260;28;20497;-82
2022/11/24 03:06:55;;;;;;;5.22;0.90;;;;;;;;;;5030231;28;20036;-81
2022/11/24 03:09:20;;;;;;;6.60;1.35;;;;;;;;;;5023776;28;20025;-81
2022/11/24 03:11:46;;;;;;;5.25;0.80;;;;;;;;;;5027265;28;20079;-81
2022/11/24 03:14:11;;;;;;;3.08;1.00;;;;;;;;;;5028512;28;20022;-81
2022/11/24 03:16:36;;;;;;;2.42;0.80;;;;;;;;;;5026673;28;20723;-81
2022/11/24 03:19:02;;;;;;;6.60;1.35;;;;;;;;;;5029106;28;20029;-82
2022/11/24 03:21:28;;;;;;;4.72;0.82;;;;;;;;;;5027805;28;20021;-81
2022/11/24 03:23:53;;;;;;;3.45;0.98;;;;;;;;;;5027895;28;20013;-81
2022/11/24 03:26:20;;;;;;;6.30;1.35;;;;;;;;;;5029241;28;20064;-81
2022/11/24 03:28:46;;;;;;;2.22;1.00;;;;;;;;;;5027064;28;20041;-81
2022/11/24 03:31:12;;;;;;;3.40;1.30;;;;;;;;;;5034621;28;20445;-80
2022/11/24 03:33:37;;;;;;;1.70;1.00;;;;;;;;;;5031834;28;20094;-81
2022/11/24 03:36:04;;;;;;;1.75;0.60;;;;;;;;;;5034049;28;20445;-80
2022/11/24 03:38:29;;;;;;;6.00;0.93;;;;;;;;;;5027073;28;20029;-82
2022/11/24 03:40:55;;;;;;;3.15;0.70;;;;;;;;;;5032930;28;20584;-81
2022/11/24 03:43:20;;;;;;;5.97;0.80;;;;;;;;;;5030546;28;20058;-81
2022/11/24 03:45:47;;;;;;;1.27;0.70;;;;;;;;;;5027080;28;20523;-81
2022/11/24 03:48:14;;;;;;;1.58;0.70;;;;;;;;;;5025265;28;20458;-81
2022/11/24 03:50:39;;;;;;;3.05;0.77;;;;;;;;;;5024487;28;20026;-81
2022/11/24 03:53:04;;;;;;;2.92;0.70;;;;;;;;;;5027810;28;20026;-81
2022/11/24 03:55:30;;;;;;;0.95;0.55;;;;;;;;;;5019339;28;20025;-82
2022/11/24 03:57:55;;;;;;;4.95;0.90;;;;;;;;;;5026727;28;20710;-82
2022/11/24 04:00:20;;;;;;;0.70;0.60;;;;;;;;;;5027059;28;20018;-81
2022/11/24 04:02:47;;;;;;;5.00;0.80;;;;;;;;;;5028820;28;20021;-81
2022/11/24 04:05:12;;;;;;;2.80;0.85;;;;;;;;;;5021282;28;20076;-82
2022/11/24 04:07:38;;;;;;;3.22;0.93;;;;;;;;;;5026992;28;20045;-81
2022/11/24 04:10:04;;;;;;;3.45;0.70;;;;;;;;;;5026777;28;20064;-81
2022/11/24 04:12:44;;;;;;;3.72;0.75;;;;;;;;;;5027814;28;20049;-81
2022/11/24 04:15:19;;;;;;;4.25;0.68;;;;;;;;;;5027121;28;20018;-81
2022/11/24 04:17:46;;;;;;;4.43;0.80;;;;;;;;;;5024617;28;20061;-81
2022/11/24 04:20:12;;;;;;;1.40;0.52;;;;;;;;;;5021569;28;20037;-81
2022/11/24 04:22:38;;;;;;;0.22;0.22;;;;;;;;;;5027788;28;20037;-80
2022/11/24 04:25:05;;;;;;;0.65;0.32;;;;;;;;;;5027493;28;20044;-80
2022/11/24 04:27:35;;;;;;;2.30;0.60;;;;;;;;;;5027748;28;20026;-80
2022/11/24 04:30:01;;;;;;;1.15;0.35;;;;;;;;;;5026028;28;20033;-81
2022/11/24 04:32:26;;;;;;;4.03;0.57;;;;;;;;;;5022707;28;20041;-81
2022/11/24 04:34:52;;;;;;;1.45;0.50;;;;;;;;;;5026288;28;20095;-81
2022/11/24 04:37:17;;;;;;;1.55;0.77;;;;;;;;;;5039891;28;20037;-81
2022/11/24 04:39:43;;;;;;;0.32;0.30;;;;;;;;;;5026136;28;20040;-81
2022/11/24 04:42:09;;;;;;;2.70;0.80;;;;;;;;;;5026428;28;20031;-80
2022/11/24 04:44:34;;;;;;;0.88;0.70;;;;;;;;;;5013950;28;20045;-81
2022/11/24 04:47:00;;;;;;;1.50;0.70;;;;;;;;;;5025770;28;20045;-81
2022/11/24 04:49:25;;;;;;;1.30;0.70;;;;;;;;;;5027015;28;20025;-81
2022/11/24 04:51:50;;;;;;;2.33;1.10;;;;;;;;;;5026417;28;20037;-81
2022/11/24 04:54:16;;;;;;;2.80;0.70;;;;;;;;;;5024740;28;20091;-81
2022/11/24 04:56:42;;;;;;;3.08;1.45;;;;;;;;;;5026442;28;20121;-81
2022/11/24 04:59:12;;;;;;;2.85;0.73;;;;;;;;;;5025090;28;20029;-81
2022/11/24 05:01:38;;;;;;;8.35;1.05;;;;;;;;;;5015281;28;20430;-81
2022/11/24 05:04:03;;;;;;;4.40;1.10;;;;;;;;;;5026872;28;20041;-80
2022/11/24 05:06:28;;;;;;;6.03;1.10;;;;;;;;;;5027476;28;20829;-81
2022/11/24 05:08:54;;;;;;;9.52;1.73;;;;;;;;;;5027242;28;20025;-81
2022/11/24 05:11:19;;;;;;;4.63;1.17;;;;;;;;;;5023564;28;21299;-81
2022/11/24 05:13:44;;;;;;;3.90;1.10;;;;;;;;;;5036525;28;20099;-81
2022/11/24 05:16:10;;;;;;;4.00;1.10;;;;;;;;;;5027194;28;20561;-81
2022/11/24 05:18:36;;;;;;;10.23;1.25;;;;;;;;;;5025259;28;20594;-81
2022/11/24 05:21:03;;;;;;;5.53;1.38;;;;;;;;;;5025197;28;20030;-81
2022/11/24 05:23:28;;;;;;;6.70;1.50;;;;;;;;;;5020994;28;20068;-81
2022/11/24 05:25:57;;;;;;;3.47;0.85;;;;;;;;;;5026832;28;20112;-81
2022/11/24 05:28:22;;;;;;;5.72;1.63;;;;;;;;;;5026587;28;20029;-81
2022/11/24 05:30:48;;;;;;;4.95;1.35;;;;;;;;;;5025557;28;20462;-80
2022/11/24 05:33:18;;;;;;;10.40;2.20;;;;;;;;;;5041574;28;20097;-80
2022/11/24 05:35:47;;;;;;;6.38;1.05;;;;;;;;;;5026414;28;20558;-81
2022/11/24 05:38:14;;;;;;;8.52;1.52;;;;;;;;;;5025939;28;20043;-81
2022/11/24 05:40:40;;;;;;;11.00;2.05;;;;;;;;;;5025217;28;20514;-81
2022/11/24 05:43:10;;;;;;;9.38;1.65;;;;;;;;;;5023768;28;20036;-82
2022/11/24 05:45:35;;;;;;;4.80;1.08;;;;;;;;;;5018619;28;20510;-81
2022/11/24 05:48:05;;;;;;;8.90;1.13;;;;;;;;;;5026178;28;20051;-81
2022/11/24 05:50:31;;;;;;;6.38;1.50;;;;;;;;;;5025031;28;20129;-81
2022/11/24 05:53:00;;;;;;;9.57;1.45;;;;;;;;;;5024155;28;20108;-82
2022/11/24 05:55:26;;;;;;;8.02;2.20;;;;;;;;;;5025465;28;20041;-81
2022/11/24 05:57:57;;;;;;;8.73;1.65;;;;;;;;;;5008981;28;20047;-81
2022/11/24 06:00:22;;;;;;;6.40;1.25;;;;;;;;;;5027094;28;20441;-82
2022/11/24 06:02:47;;;;;;;5.57;1.05;;;;;;;;;;5024871;28;20029;-81
2022/11/24 06:05:13;;;;;;;6.40;1.20;;;;;;;;;;5027297;28;20080;-81
2022/11/24 06:07:38;;;;;;;3.60;1.35;;;;;;;;;;5024736;28;20508;-82
2022/11/24 06:10:04;;;;;;;2.97;1.05;;;;;;;;;;5026561;28;20032;-80
2022/11/24 06:12:29;;;;;;;5.47;0.77;;;;;;;;;;5026162;28;20049;-81
2022/11/24 06:14:55;;;;;;;5.95;1.25;;;;;;;;;;5023972;28;20025;-81
2022/11/24 06:17:20;;;;;;;5.93;1.13;;;;;;;;;;5024717;28;20048;-81
2022/11/24 06:19:48;;;;;;;8.27;1.20;;;;;;;;;;5026012;28;20045;-81
2022/11/24 06:22:14;;;;;;;5.28;1.20;;;;;;;;;;5024667;28;20049;-80
2022/11/24 06:24:39;;;;;;;7.38;1.02;;;;;;;;;;5025186;28;20037;-80
2022/11/24 06:27:05;;;;;;;5.95;1.23;;;;;;;;;;5024685;28;20013;-81
2022/11/24 06:29:30;;;;;;;4.28;1.13;;;;;;;;;;5026055;28;20037;-81
2022/11/24 06:31:56;;;;;;;7.82;1.35;;;;;;;;;;5026084;28;20480;-81
2022/11/24 06:34:21;;;;;;;2.35;0.90;;;;;;;;;;5024989;28;20045;-81
2022/11/24 06:36:46;;;;;;;4.20;0.98;;;;;;;;;;5026208;28;20076;-84
2022/11/24 06:39:12;;;;;;;8.60;1.63;;;;;;;;;;5026226;28;20032;-82
2022/11/24 06:41:37;;;;;;;5.40;1.50;;;;;;;;;;5025540;28;20461;-83
2022/11/24 06:44:03;;;;;;;3.22;0.82;;;;;;;;;;5020299;28;20550;-83
2022/11/24 06:46:29;;;;;;;3.13;1.40;;;;;;;;;;5014305;28;20107;-82
2022/11/24 06:48:54;;;;;;;8.85;1.90;;;;;;;;;;5025987;28;20030;-83
2022/11/24 06:51:19;;;;;;;4.70;0.90;;;;;;;;;;5026265;28;20025;-83
2022/11/24 06:53:45;;;;;;;2.90;1.40;;;;;;;;;;5025977;28;20505;-83
2022/11/24 06:56:12;;;;;;;7.07;1.30;;;;;;;;;;5041570;28;20037;-81
2022/11/24 06:58:42;;;;;;;7.72;1.42;;;;;;;;;;5028459;28;20722;-82
2022/11/24 07:01:08;;;;;;;10.02;1.40;;;;;;;;;;5028855;28;20505;-82
2022/11/24 07:03:33;;;;;;;5.95;1.30;;;;;;;;;;5028539;28;20037;-83
2022/11/24 07:05:58;;;;;;;5.80;1.08;;;;;;;;;;5028644;28;20052;-83
2022/11/24 07:08:25;;;;;;;7.07;1.17;;;;;;;;;;5027155;28;20033;-82
2022/11/24 07:10:53;;;;;;;7.68;1.35;;;;;;;;;;5026681;28;20064;-84
2022/11/24 07:13:19;;;;;;;9.75;1.17;;;;;;;;;;5035611;28;20038;-81
2022/11/24 07:15:45;;;;;;;5.50;1.77;;;;;;;;;;5027592;28;20068;-80
2022/11/24 07:18:10;;;;;;;1.85;1.10;;;;;;;;;;5030259;28;20025;-87
2022/11/24 07:20:36;;;;;;;4.45;1.63;;;;;;;;;;5028754;28;20039;-86
2022/11/24 07:23:01;;;;;;;5.22;1.50;;;;;;;;;;5030267;28;20025;-87
2022/11/24 07:25:27;;;;;;;7.68;1.83;;;;;;;;;;5030797;28;20033;-87
2022/11/24 07:27:56;;;;;;;8.88;1.92;;;;;;;;;;5030201;28;20468;-87
2022/11/24 07:30:22;;;;;;;4.78;1.23;;;;;;;;;;5025564;28;20063;-87
2022/11/24 07:32:47;;;;;;;7.80;1.40;;;;;;;;;;5031826;28;20353;-87
2022/11/24 07:35:13;;;;;;;3.88;0.93;;;;;;;;;;5046052;28;20041;-87
2022/11/24 07:37:38;;;;;;;7.80;1.73;;;;;;;;;;5032228;28;20395;-87
2022/11/24 07:40:04;;;;;;;15.15;1.85;;;;;;;;;;5028466;28;20257;-87
2022/11/24 07:42:29;;;;;;;5.82;1.38;;;;;;;;;;5029570;28;20049;-88
2022/11/24 07:44:55;;;;;;;7.15;1.33;;;;;;;;;;5023193;28;20087;-88
2022/11/24 07:47:20;;;;;;;4.40;1.30;;;;;;;;;;5031322;28;20045;-87
2022/11/24 07:49:45;;;;;;;3.60;0.90;;;;;;;;;;5030475;28;20040;-88
2022/11/24 07:52:11;;;;;;;6.35;1.50;;;;;;;;;;5029174;28;20120;-87
2022/11/24 07:54:36;;;;;;;4.00;1.13;;;;;;;;;;5046044;28;20053;-88
2022/11/24 07:57:01;;;;;;;5.43;1.30;;;;;;;;;;5028997;28;20091;-91
2022/11/24 07:59:27;;;;;;;5.05;1.40;;;;;;;;;;5030197;28;20065;-86
2022/11/24 08:01:52;;;;;;;6.85;1.20;;;;;;;;;;5031015;28;20037;-87
2022/11/24 08:04:17;;;;;;;8.27;1.73;;;;;;;;;;5030114;28;20102;-86
2022/11/24 08:06:43;;;;;;;6.13;1.52;;;;;;;;;;5028795;28;20097;-87
2022/11/24 08:09:08;;;;;;;5.55;1.33;;;;;;;;;;5030026;28;20053;-88
2022/11/24 08:11:33;;;;;;;10.00;1.30;;;;;;;;;;5026587;28;20380;-87
2022/11/24 08:13:58;;;;;;;7.22;1.35;;;;;;;;;;5028719;28;20025;-87
2022/11/24 08:16:24;;;;;;;7.63;1.40;;;;;;;;;;5027866;28;20033;-87
2022/11/24 08:18:51;;;;;;;3.00;1.10;;;;;;;;;;5034965;28;20028;-87
2022/11/24 08:21:17;;;;;;;7.38;1.23;;;;;;;;;;5036180;28;20490;-87
2022/11/24 08:23:43;;;;;;;3.00;1.20;;;;;;;;;;5027916;28;20044;-86
2022/11/24 08:26:14;;;;;;;4.55;1.55;;;;;;;;;;5027493;28;20414;-87
2022/11/24 08:28:40;;;;;;;7.10;1.50;;;;;;;;;;5021332;28;20072;-86
2022/11/24 08:31:08;;;;;;;9.20;1.27;;;;;;;;;;5022771;28;20061;-85
2022/11/24 08:33:34;;;;;;;4.68;1.42;;;;;;;;;;5026297;28;20052;-83
2022/11/24 08:36:05;;;;;;;2.70;1.20;;;;;;;;;;5019023;28;20017;-84
2022/11/24 08:38:31;;;;;;;4.88;1.23;;;;;;;;;;5026380;28;20041;-84
2022/11/24 08:41:05;;;;;;;2.67;0.73;;;;;;;;;;5023379;28;20092;-85
2022/11/24 08:43:31;;;;;;;7.18;1.15;;;;;;;;;;5021301;28;20037;-84
2022/11/24 08:46:01;;;;;;;8.52;1.15;;;;;;;;;;5026828;28;20069;-84
2022/11/24 08:48:27;;;;;;;5.78;1.38;;;;;;;;;;5018080;28;20021;-85
2022/11/24 08:50:52;;;;;;;6.35;1.20;;;;;;;;;;5026764;28;20537;-85
2022/11/24 08:53:18;;;;;;;5.18;1.58;;;;;;;;;;5025618;28;20034;-84
2022/11/24 08:55:43;;;;;;;6.80;1.58;;;;;;;;;;5034381;28;20030;-86
2022/11/24 08:58:08;;;;;;;4.15;1.38;;;;;;;;;;5027759;28;20510;-84
2022/11/24 09:00:34;;;;;;;6.57;1.48;;;;;;;;;;5021712;28;20045;-85
2022/11/24 09:02:59;;;;;;;4.43;1.20;;;;;;;;;;5026848;28;20025;-87
2022/11/24 09:05:24;;;;;;;3.78;1.30;;;;;;;;;;5026250;28;20442;-85
2022/11/24 09:07:50;;;;;;;5.25;1.38;;;;;;;;;;5025603;28;20787;-85
2022/11/24 09:10:15;;;;;;;6.35;2.15;;;;;;;;;;5023867;28;20037;-85
2022/11/24 09:12:43;;;;;;;11.25;1.90;;;;;;;;;;5021666;28;20076;-85
2022/11/24 09:15:09;;;;;;;4.90;1.27;;;;;;;;;;5026742;28;20379;-85
2022/11/24 09:17:35;;;;;;;6.60;1.50;;;;;;;;;;5023736;28;20052;-85
2022/11/24 09:20:00;;;;;;;12.23;1.48;;;;;;;;;;5024789;28;20033;-84
2022/11/24 09:22:26;;;;;;;6.57;1.63;;;;;;;;;;5023018;28;20036;-85
2022/11/24 09:24:51;;;;;;;5.93;1.30;;;;;;;;;;5023086;28;20580;-85
2022/11/24 09:27:16;;;;;;;6.07;1.90;;;;;;;;;;5020508;28;20544;-85
2022/11/24 09:29:42;;;;;;;9.90;1.48;;;;;;;;;;5022349;28;20493;-86
2022/11/24 09:32:07;;;;;;;8.43;1.60;;;;;;;;;;5026356;28;20056;-86
2022/11/24 09:34:33;;;;;;;3.63;1.40;;;;;;;;;;5025475;28;20036;-86
2022/11/24 09:36:58;;;;;;;5.85;1.77;;;;;;;;;;5023186;28;20443;-86
2022/11/24 09:39:23;;;;;;;7.47;1.65;;;;;;;;;;5020352;28;20040;-84
2022/11/24 09:42:08;;;;;;;5.78;1.42;;;;;;;;;;5019700;28;20032;-87
2022/11/24 09:44:52;;;;;;;6.03;1.48;;;;;;;;;;5022187;28;20041;-85
2022/11/24 09:47:41;;;;;;;;;;;;;;;;;;5024039;28;20045;-86
2022/11/24 09:50:22;;;;;;;6.03;1.13;;;;;;;;;;5024360;28;19913;-87
2022/11/24 09:53:02;;;;;;;3.65;0.93;;;;;;;;;;5025996;28;20120;-86
2022/11/24 09:55:27;;;;;;;6.28;1.60;;;;;;;;;;5022995;28;20151;-86
2022/11/24 09:58:16;;;;;;;5.50;1.70;;;;;;;;;;5022115;28;20147;-86
2022/11/24 10:00:42;;;;;;;10.75;1.33;;;;;;;;;;5014227;28;20048;-86
2022/11/24 10:03:14;;;;;;;4.72;1.63;;;;;;;;;;5018184;28;20025;-87
2022/11/24 10:05:41;;;;;;;4.22;1.40;;;;;;;;;;5023972;28;20029;-86
2022/11/24 10:08:18;;;;;;;8.05;1.50;;;;;;;;;;5022093;28;20458;-86
2022/11/24 10:10:56;;;;;;;11.18;2.13;;;;;;;;;;5024223;28;20194;-86
2022/11/24 10:13:45;;;;;;;6.85;1.80;;;;;;;;;;5017475;28;20047;-87
2022/11/24 10:16:26;;;;;;;11.68;2.47;;;;;;;;;;5023891;28;20077;-86
2022/11/24 10:19:11;;;;;;;4.22;1.33;;;;;;;;;;5035112;28;20041;-86
2022/11/24 10:21:52;;;;;;;5.70;1.20;;;;;;;;;;5017147;28;20778;-87
2022/11/24 10:24:50;;;;;;;6.15;1.40;;;;;;;;;;5009921;28;20409;-87
2022/11/24 10:27:18;;;;;;;2.85;0.90;;;;;;;;;;5022658;28;20589;-86
2022/11/24 10:29:45;;;;;;;11.88;1.83;;;;;;;;;;5030101;28;20025;-86
2022/11/24 10:32:18;;;;;;;6.25;1.33;;;;;;;;;;5026808;28;20033;-87
2022/11/24 10:34:45;;;;;;;9.48;1.40;;;;;;;;;;5042672;28;20079;-88
2022/11/24 10:37:10;;;;;;;9.63;1.45;;;;;;;;;;5030112;28;20041;-84
2022/11/24 10:39:45;;;;;;;6.60;2.20;;;;;;;;;;5028007;28;20101;-87
2022/11/24 10:42:32;;;;;;;4.43;1.50;;;;;;;;;;5025318;28;20037;-85
2022/11/24 10:44:59;;;;;;;9.10;1.33;;;;;;;;;;5016581;28;20124;-87
2022/11/24 10:47:24;;;;;;;5.25;1.10;;;;;;;;;;5025255;28;20124;-87
2022/11/24 10:50:01;;;;;;;8.45;1.80;;;;;;;;;;5028247;28;20083;-86
2022/11/24 10:52:28;;;;;;;3.83;1.20;;;;;;;;;;5025834;28;20168;-87
2022/11/24 10:54:56;;;;;;;16.40;1.40;;;;;;;;;;5028668;28;20033;-87
2022/11/24 10:57:34;;;;;;;3.05;0.98;;;;;;;;;;5016588;28;20022;-87
2022/11/24 11:00:00;;;;;;;6.50;1.10;;;;;;;;;;5028947;28;20108;-87
2022/11/24 11:02:34;;;;;;;8.48;1.20;;;;;;;;;;5028206;28;20033;-87
2022/11/24 11:05:21;;;;;;;;;;;;;;;;;;5025878;28;20037;-86
2022/11/24 11:07:46;;;;;;;6.55;1.52;;;;;;;;;;5034701;28;19925;-87
2022/11/24 11:10:20;;;;;;;4.00;1.50;;;;;;;;;;5028555;28;20384;-86
2022/11/24 11:12:45;;;;;;;;;;;;;;;;;;5025307;28;20426;-86
2022/11/24 11:15:25;;;;;;;9.80;1.70;;;;;;;;;;5023826;28;20433;-87
2022/11/24 11:17:56;;;;;;;4.80;1.50;;;;;;;;;;5027988;28;20033;-86
2022/11/24 11:20:27;;;;;;;7.72;1.60;;;;;;;;;;5028757;28;20129;-86
2022/11/24 11:22:54;;;;;;;14.52;2.20;;;;;;;;;;5026459;28;20731;-86
2022/11/24 11:25:31;;;;;;;7.30;1.30;;;;;;;;;;5025725;28;20033;-88
2022/11/24 11:28:29;;;;;;;3.95;0.93;;;;;;;;;;5028855;28;20553;-86
2022/11/24 11:31:05;;;;;;;6.80;1.45;;;;;;;;;;5015519;28;20033;-86
2022/11/24 11:33:32;;;;;;;11.20;2.08;;;;;;;;;;5028428;28;20033;-86
2022/11/24 11:36:00;;;;;;;10.90;2.15;;;;;;;;;;5030650;28;20542;-86
2022/11/24 11:38:32;;;;;;;6.10;1.45;;;;;;;;;;5030032;28;20095;-87
2022/11/24 11:40:59;;;;;;;9.90;1.63;;;;;;;;;;5027913;28;20091;-86
2022/11/24 11:43:33;;;;;;;9.63;1.80;;;;;;;;;;5029874;28;20071;-87
2022/11/24 11:46:02;;;;;;;17.02;2.70;;;;;;;;;;5031182;28;20112;-88
2022/11/24 11:48:35;;;;;;;16.88;2.70;;;;;;;;;;5029708;28;20087;-88
2022/11/24 11:51:03;;;;;;;11.55;1.92;;;;;;;;;;5042560;28;20021;-88
2022/11/24 11:53:45;;;;;;;9.63;2.00;;;;;;;;;;5034527;28;20087;-89
2022/11/24 11:56:16;;;;;;;13.25;1.77;;;;;;;;;;5029169;28;20064;-88
2022/11/24 11:58:44;;;;;;;10.18;2.10;;;;;;;;;;5030073;28;20083;-88
2022/11/24 12:01:35;;;;;;;13.68;2.13;;;;;;;;;;5027226;28;20044;-89
2022/11/24 12:04:22;;;;;;;10.60;2.00;;;;;;;;;;5040120;28;20044;-88
2022/11/24 12:06:50;;;;;;;7.55;1.75;;;;;;;;;;5037657;28;20082;-87
2022/11/24 12:09:40;;;;;;;10.52;2.38;;;;;;;;;;5029518;28;20448;-88
2022/11/24 12:12:33;;;;;;;12.82;2.60;;;;;;;;;;5022825;28;20603;-88
2022/11/24 12:15:20;;;;;;;10.38;1.88;;;;;;;;;;5030993;28;20045;-88
2022/11/24 12:18:02;;;;;;;15.55;2.30;;;;;;;;;;5017209;28;20053;-88
2022/11/24 12:20:46;;;;;;;12.60;2.25;;;;;;;;;;5022521;28;20060;-88
2022/11/24 12:23:37;;;;;;;17.15;2.45;;;;;;;;;;5041284;28;20056;-88
2022/11/24 12:26:32;;;;;;;10.10;1.92;;;;;;;;;;5017413;28;20068;-88
2022/11/24 12:29:16;;;;;;;10.73;2.15;;;;;;;;;;5021103;28;20037;-87
2022/11/24 12:31:57;;;;;;;8.50;2.25;;;;;;;;;;5016977;28;20038;-89
2022/11/24 12:34:31;;;;;;;13.40;2.58;;;;;;;;;;5029017;28;20067;-90
2022/11/24 12:37:20;;;;;;;12.35;2.65;;;;;;;;;;5023810;28;20108;-88
2022/11/24 12:40:02;;;;;;;11.48;2.22;;;;;;;;;;5026570;28;20560;-89
2022/11/24 12:43:05;;;;;;;11.25;2.00;;;;;;;;;;5028210;28;20033;-89
2022/11/24 12:45:49;;;;;;;17.85;2.13;;;;;;;;;;5012946;28;20054;-89
2022/11/24 12:48:20;;;;;;;;;;;;;;;;;;5016920;28;20029;-84
2022/11/24 12:50:46;;;;;;;8.75;2.08;;;;;;;;;;5014499;28;19917;-84
2022/11/24 12:53:15;;;;;;;5.13;1.48;;;;;;;;;;5023911;28;20043;-84
2022/11/24 12:55:42;;;;;;;9.43;2.08;;;;;;;;;;5024426;28;20100;-84
2022/11/24 12:58:30;;;;;;;13.55;1.48;;;;;;;;;;5023392;28;20494;-84
2022/11/24 13:01:11;;;;;;;11.30;1.70;;;;;;;;;;5025353;28;20045;-86
2022/11/24 13:03:58;;;;;;;4.53;1.33;;;;;;;;;;5014728;28;20036;-85
2022/11/24 13:07:03;;;;;;;12.27;1.50;;;;;;;;;;5024579;28;20099;-86
2022/11/24 13:09:28;;;;;;;7.15;1.48;;;;;;;;;;5024305;28;20025;-86
2022/11/24 13:12:07;;;;;;;8.90;1.80;;;;;;;;;;5024223;28;20029;-86
2022/11/24 13:14:37;;;;;;;8.90;1.60;;;;;;;;;;5026783;28;20596;-86
2022/11/24 13:17:23;;;;;;;5.38;1.38;;;;;;;;;;5027058;28;20442;-86
2022/11/24 13:19:48;;;;;;;7.72;1.60;;;;;;;;;;5017114;28;20040;-87
2022/11/24 13:22:21;;;;;;;5.07;1.40;;;;;;;;;;5023851;28;20037;-87
2022/11/24 13:25:11;;;;;;;6.60;1.58;;;;;;;;;;5020303;28;20056;-86
2022/11/24 13:27:42;;;;;;;6.68;1.10;;;;;;;;;;5024789;28;20525;-87
2022/11/24 13:30:32;;;;;;;11.95;1.65;;;;;;;;;;5020688;28;20017;-86
2022/11/24 13:33:21;;;;;;;5.90;1.38;;;;;;;;;;5027983;28;20041;-87
2022/11/24 13:36:21;;;;;;;2.55;1.02;;;;;;;;;;5015005;28;20985;-87
2022/11/24 13:38:47;;;;;;;12.60;1.85;;;;;;;;;;5009982;28;20037;-84
2022/11/24 13:41:48;;;;;;;11.60;1.83;;;;;;;;;;5022347;28;20045;-86
2022/11/24 13:44:13;;;;;;;5.80;1.50;;;;;;;;;;4986495;28;20097;-86
2022/11/24 13:47:17;;;;;;;8.13;1.58;;;;;;;;;;5027044;28;20477;-87
2022/11/24 13:49:47;;;;;;;6.80;1.75;;;;;;;;;;5023460;28;20057;-87
2022/11/24 13:52:34;;;;;;;8.50;1.90;;;;;;;;;;5027750;28;20515;-87
2022/11/24 13:55:01;;;;;;;5.50;1.70;;;;;;;;;;5023465;28;20091;-88
2022/11/24 13:57:35;;;;;;;8.38;1.60;;;;;;;;;;5014301;28;20053;-87
2022/11/24 14:00:00;;;;;;;;;;;;;;;;;;5035636;28;20569;-86
2022/11/24 14:02:27;;;;;;;9.55;2.10;;;;;;;;;;5020779;28;20013;-86
2022/11/24 14:04:54;;;;;;;7.72;1.70;;;;;;;;;;5023449;28;20040;-86
2022/11/24 14:07:19;;;;;;;11.65;2.22;;;;;;;;;;5041429;28;20585;-88
2022/11/24 14:09:48;;;;;;;9.15;1.15;;;;;;;;;;5026584;28;20503;-88
2022/11/24 14:12:24;;;;;;;6.82;1.65;;;;;;;;;;5032211;28;20565;-89
2022/11/24 14:14:51;;;;;;;6.30;1.20;;;;;;;;;;5032043;28;20034;-88
2022/11/24 14:17:21;;;;;;;4.35;1.30;;;;;;;;;;5032604;28;20041;-88
2022/11/24 14:19:52;;;;;;;3.63;1.13;;;;;;;;;;5031279;28;20137;-88
2022/11/24 14:22:22;;;;;;;6.63;1.63;;;;;;;;;;5041624;28;20049;-88
2022/11/24 14:24:56;;;;;;;4.88;1.42;;;;;;;;;;5030375;28;20041;-88
2022/11/24 14:27:26;;;;;;;9.95;1.67;;;;;;;;;;5027540;28;20017;-87
2022/11/24 14:29:56;;;;;;;5.70;1.40;;;;;;;;;;5032086;28;20433;-88
2022/11/24 14:32:22;;;;;;;9.35;1.70;;;;;;;;;;5031052;28;20125;-88
2022/11/24 14:34:47;;;;;;;8.02;1.85;;;;;;;;;;5026239;28;20116;-89
2022/11/24 14:37:15;;;;;;;5.57;1.17;;;;;;;;;;5048264;28;20038;-88
2022/11/24 14:39:41;;;;;;;9.02;1.77;;;;;;;;;;5031537;28;20033;-88
2022/11/24 14:42:23;;;;;;;11.40;1.63;;;;;;;;;;5030994;28;20037;-89
2022/11/24 14:44:57;;;;;;;5.93;0.98;;;;;;;;;;5011072;28;20071;-83
2022/11/24 14:47:28;;;;;;;7.53;1.63;;;;;;;;;;5021057;28;20060;-90
2022/11/24 14:49:56;;;;;;;9.32;2.20;;;;;;;;;;5024657;28;20453;-87
2022/11/24 14:52:22;;;;;;;6.50;1.75;;;;;;;;;;5025673;28;20084;-87
2022/11/24 14:54:51;;;;;;;11.25;2.00;;;;;;;;;;5025074;28;20038;-84
2022/11/24 14:57:25;;;;;;;8.13;1.42;;;;;;;;;;5040586;28;20048;-88